createdAt,value
2017-12-08T00:00:47.329Z,83.52
2017-12-08T00:03:15.635Z,83.83
2017-12-08T00:05:43.980Z,83.84
2017-12-08T00:08:12.323Z,83.56
2017-12-08T00:10:40.711Z,83.45
2017-12-08T00:13:09.085Z,83.46
2017-12-08T00:15:37.409Z,83.56
2017-12-08T00:18:05.785Z,83.71
2017-12-08T00:20:34.125Z,84.04
2017-12-08T00:23:02.482Z,84.45
2017-12-08T00:25:30.779Z,84.75
2017-12-08T00:27:59.104Z,84.84
2017-12-08T00:30:27.430Z,84.85
2017-12-08T00:32:55.749Z,85.19
2017-12-08T00:35:24.081Z,85.07
2017-12-08T00:37:52.404Z,85.02
2017-12-08T00:40:20.729Z,85.42
2017-12-08T00:42:49.108Z,85.28
2017-12-08T00:45:17.413Z,85.49
2017-12-08T00:47:45.786Z,85.00
2017-12-08T00:50:14.116Z,85.20
2017-12-08T00:52:42.441Z,85.78
2017-12-08T00:55:10.770Z,85.71
2017-12-08T00:57:39.102Z,85.46
2017-12-08T01:00:07.450Z,85.66
2017-12-08T01:02:35.754Z,85.55
2017-12-08T01:05:04.110Z,85.37
2017-12-08T01:07:32.430Z,85.55
2017-12-08T01:10:00.756Z,85.51
2017-12-08T01:12:29.079Z,85.32
2017-12-08T01:14:57.475Z,85.46
2017-12-08T01:17:25.960Z,85.41
2017-12-08T01:19:54.277Z,85.47
2017-12-08T01:22:22.608Z,85.31
2017-12-08T01:24:50.936Z,85.39
2017-12-08T01:27:19.307Z,85.08
2017-12-08T01:29:47.617Z,85.07
2017-12-08T01:32:15.997Z,85.07
2017-12-08T01:34:44.369Z,84.86
2017-12-08T01:37:12.698Z,84.51
2017-12-08T01:39:40.997Z,83.92
2017-12-08T01:42:09.299Z,83.63
2017-12-08T01:44:37.653Z,83.57
2017-12-08T01:47:05.977Z,83.68
2017-12-08T01:49:34.305Z,83.55
2017-12-08T01:52:02.616Z,83.47
2017-12-08T01:54:30.953Z,83.48
2017-12-08T01:56:59.265Z,83.47
2017-12-08T01:59:27.620Z,83.20
2017-12-08T02:01:55.920Z,82.49
2017-12-08T02:04:24.304Z,82.39
2017-12-08T02:06:52.664Z,82.36
2017-12-08T02:09:21.000Z,82.42
2017-12-08T02:11:49.332Z,82.74
2017-12-08T02:14:17.646Z,82.86
2017-12-08T02:16:45.997Z,82.84
2017-12-08T02:19:14.296Z,82.97
2017-12-08T02:21:42.656Z,82.71
2017-12-08T02:24:11.729Z,82.37
2017-12-08T02:26:40.139Z,81.96
2017-12-08T02:29:08.488Z,81.59
2017-12-08T02:31:36.844Z,81.73
2017-12-08T02:34:05.999Z,81.03
2017-12-08T02:36:34.318Z,79.99
2017-12-08T02:39:02.646Z,78.88
2017-12-08T02:41:30.977Z,78.08
2017-12-08T02:43:59.304Z,78.42
2017-12-08T02:46:27.598Z,78.77
2017-12-08T02:48:55.957Z,78.87
2017-12-08T02:51:24.237Z,78.52
2017-12-08T02:53:52.586Z,78.34
2017-12-08T02:56:20.889Z,77.85
2017-12-08T02:58:49.256Z,77.61
2017-12-08T03:01:17.580Z,77.69
2017-12-08T03:03:45.884Z,77.58
2017-12-08T03:06:14.205Z,77.49
2017-12-08T03:08:42.541Z,77.47
2017-12-08T03:11:10.900Z,77.63
2017-12-08T03:13:39.564Z,77.83
2017-12-08T03:16:07.904Z,77.91
2017-12-08T03:18:36.233Z,77.74
2017-12-08T03:21:04.820Z,77.86
2017-12-08T03:23:33.160Z,78.18
2017-12-08T03:26:01.485Z,78.45
2017-12-08T03:28:29.849Z,78.52
2017-12-08T03:30:58.168Z,78.06
2017-12-08T03:33:26.489Z,78.04
2017-12-08T03:35:54.806Z,78.34
2017-12-08T03:38:23.120Z,78.61
2017-12-08T03:40:51.436Z,78.15
2017-12-08T03:43:19.764Z,78.30
2017-12-08T03:45:48.072Z,78.70
2017-12-08T03:48:16.409Z,78.90
2017-12-08T03:50:44.801Z,78.78
2017-12-08T03:53:13.132Z,78.80
2017-12-08T03:55:41.444Z,78.54
2017-12-08T03:58:09.846Z,78.72
2017-12-08T04:00:38.147Z,78.75
2017-12-08T04:03:06.468Z,79.16
2017-12-08T04:05:34.797Z,79.37
2017-12-08T04:08:03.145Z,79.31
2017-12-08T04:10:31.491Z,79.51
2017-12-08T04:12:59.882Z,79.51
2017-12-08T04:15:28.251Z,79.45
2017-12-08T04:17:56.588Z,79.18
2017-12-08T04:20:24.933Z,79.20
2017-12-08T04:22:53.242Z,79.13
2017-12-08T04:25:21.596Z,78.95
2017-12-08T04:27:49.903Z,78.66
2017-12-08T04:30:18.218Z,78.46
2017-12-08T04:32:46.570Z,78.50
2017-12-08T04:35:14.956Z,78.61
2017-12-08T04:37:43.317Z,79.01
2017-12-08T04:40:11.644Z,79.06
2017-12-08T04:42:39.987Z,79.30
2017-12-08T04:45:08.392Z,79.47
2017-12-08T04:47:36.769Z,79.24
2017-12-08T04:50:05.086Z,79.54
2017-12-08T04:52:33.394Z,79.43
2017-12-08T04:55:01.745Z,79.42
2017-12-08T04:57:30.062Z,79.35
2017-12-08T04:59:58.416Z,79.29
2017-12-08T05:02:26.742Z,79.17
2017-12-08T05:04:55.088Z,78.98
2017-12-08T05:07:23.388Z,78.99
2017-12-08T05:09:51.742Z,78.88
2017-12-08T05:12:20.059Z,79.20
2017-12-08T05:14:48.406Z,79.27
2017-12-08T05:17:16.736Z,78.72
2017-12-08T05:19:45.389Z,78.85
2017-12-08T05:22:13.756Z,78.68
2017-12-08T05:24:42.074Z,78.19
2017-12-08T05:27:10.410Z,77.53
2017-12-08T05:29:38.797Z,77.47
2017-12-08T05:32:07.113Z,77.35
2017-12-08T05:34:35.473Z,77.40
2017-12-08T05:37:04.480Z,77.50
2017-12-08T05:39:32.823Z,77.60
2017-12-08T05:42:01.148Z,78.02
2017-12-08T05:44:29.472Z,77.77
2017-12-08T05:46:57.794Z,77.50
2017-12-08T05:49:26.141Z,77.09
2017-12-08T05:51:54.473Z,76.36
2017-12-08T05:54:22.781Z,76.34
2017-12-08T05:56:51.109Z,76.21
2017-12-08T05:59:19.633Z,75.60
2017-12-08T06:01:47.968Z,75.54
2017-12-08T06:04:16.283Z,75.09
2017-12-08T06:06:45.170Z,75.34
2017-12-08T06:09:13.480Z,74.70
2017-12-08T06:11:41.828Z,74.59
2017-12-08T06:14:10.145Z,74.86
2017-12-08T06:16:38.453Z,74.51
2017-12-08T06:19:06.778Z,74.42
2017-12-08T06:21:35.092Z,74.78
2017-12-08T06:24:03.535Z,74.82
2017-12-08T06:26:31.870Z,74.92
2017-12-08T06:29:00.193Z,75.12
2017-12-08T06:31:28.497Z,75.16
2017-12-08T06:33:56.853Z,75.20
2017-12-08T06:36:25.290Z,75.33
2017-12-08T06:38:53.691Z,75.09
2017-12-08T06:41:22.025Z,74.71
2017-12-08T06:43:50.313Z,74.92
2017-12-08T06:46:18.655Z,75.18
2017-12-08T06:48:47.013Z,75.24
2017-12-08T06:51:15.317Z,75.04
2017-12-08T06:53:43.729Z,75.15
2017-12-08T06:56:12.431Z,75.17
2017-12-08T06:58:40.724Z,74.66
2017-12-08T07:01:09.131Z,74.99
2017-12-08T07:03:37.411Z,74.58
2017-12-08T07:06:05.813Z,74.68
2017-12-08T07:08:34.206Z,75.26
2017-12-08T07:11:02.525Z,74.81
2017-12-08T07:13:30.858Z,74.53
2017-12-08T07:15:59.193Z,74.61
2017-12-08T07:18:27.548Z,74.34
2017-12-08T07:20:55.863Z,74.25
2017-12-08T07:23:24.225Z,74.61
2017-12-08T07:25:52.692Z,74.61
2017-12-08T07:28:21.011Z,74.76
2017-12-08T07:30:49.336Z,74.83
2017-12-08T07:33:17.638Z,75.18
2017-12-08T07:35:45.979Z,75.18
2017-12-08T07:38:15.230Z,74.96
2017-12-08T07:40:43.576Z,74.88
2017-12-08T07:43:11.897Z,74.59
2017-12-08T07:45:40.240Z,74.29
2017-12-08T07:48:08.558Z,73.18
2017-12-08T07:50:36.913Z,72.50
2017-12-08T07:53:05.937Z,72.52
2017-12-08T07:55:34.255Z,72.41
2017-12-08T07:58:03.284Z,72.02
2017-12-08T08:00:31.615Z,71.65
2017-12-08T08:02:59.927Z,71.37
2017-12-08T08:05:28.240Z,70.50
2017-12-08T08:07:56.633Z,70.64
2017-12-08T08:10:24.929Z,71.18
2017-12-08T08:12:53.290Z,70.58
2017-12-08T08:15:21.615Z,70.83
2017-12-08T08:17:49.975Z,70.04
2017-12-08T08:20:18.283Z,70.50
2017-12-08T08:22:46.662Z,70.88
2017-12-08T08:25:14.988Z,70.78
2017-12-08T08:27:43.287Z,70.92
2017-12-08T08:30:11.633Z,71.05
2017-12-08T08:32:39.953Z,71.72
2017-12-08T08:35:08.317Z,71.74
2017-12-08T08:37:36.676Z,72.18
2017-12-08T08:40:05.025Z,72.71
2017-12-08T08:42:33.338Z,73.23
2017-12-08T08:45:01.676Z,73.49
2017-12-08T08:47:29.990Z,73.12
2017-12-08T08:49:58.324Z,73.22
2017-12-08T08:52:26.649Z,73.38
2017-12-08T08:54:54.954Z,73.44
2017-12-08T08:57:23.285Z,73.59
2017-12-08T08:59:51.680Z,73.85
2017-12-08T09:02:20.068Z,73.42
2017-12-08T09:04:48.393Z,73.64
2017-12-08T09:07:16.756Z,73.42
2017-12-08T09:09:45.057Z,72.91
2017-12-08T09:12:13.398Z,73.52
2017-12-08T09:14:41.708Z,73.37
2017-12-08T09:17:10.024Z,73.37
2017-12-08T09:19:38.357Z,72.81
2017-12-08T09:22:06.828Z,73.25
2017-12-08T09:24:35.165Z,73.75
2017-12-08T09:27:03.477Z,73.45
2017-12-08T09:29:31.800Z,73.45
2017-12-08T09:32:00.128Z,72.75
2017-12-08T09:34:28.486Z,72.46
2017-12-08T09:36:56.790Z,72.91
2017-12-08T09:39:25.126Z,73.39
2017-12-08T09:41:53.520Z,73.32
2017-12-08T09:44:21.940Z,73.39
2017-12-08T09:46:51.492Z,73.24
2017-12-08T09:49:19.892Z,73.17
2017-12-08T09:51:48.274Z,73.34
2017-12-08T09:54:16.583Z,72.54
2017-12-08T09:56:44.918Z,72.14
2017-12-08T09:59:13.213Z,71.60
2017-12-08T10:01:41.540Z,70.55
2017-12-08T10:04:09.873Z,68.91
2017-12-08T10:06:38.222Z,68.14
2017-12-08T10:09:06.534Z,68.80
2017-12-08T10:11:34.884Z,68.58
2017-12-08T10:14:03.907Z,67.92
2017-12-08T10:16:32.294Z,67.57
2017-12-08T10:19:00.653Z,67.98
2017-12-08T10:21:28.968Z,69.40
2017-12-08T10:23:57.358Z,69.93
2017-12-08T10:26:25.763Z,69.35
2017-12-08T10:28:54.135Z,70.05
2017-12-08T10:31:22.429Z,70.09
2017-12-08T10:33:50.829Z,69.69
2017-12-08T10:36:20.029Z,70.90
2017-12-08T10:38:48.373Z,72.80
2017-12-08T10:41:16.686Z,75.34
2017-12-08T10:43:45.025Z,76.88
2017-12-08T10:46:13.353Z,78.49
2017-12-08T10:48:43.284Z,78.80
2017-12-08T10:51:11.629Z,81.07
2017-12-08T10:53:39.965Z,81.88
2017-12-08T10:56:08.277Z,81.11
2017-12-08T10:58:36.598Z,83.05
2017-12-08T11:01:05.825Z,84.01
2017-12-08T11:03:34.208Z,84.61
2017-12-08T11:06:02.611Z,85.06
2017-12-08T11:08:31.070Z,84.88
2017-12-08T11:10:59.459Z,83.01
2017-12-08T11:13:27.976Z,81.79
2017-12-08T11:15:57.008Z,80.03
2017-12-08T11:18:25.425Z,79.26
2017-12-08T11:20:53.782Z,80.56
2017-12-08T11:23:22.168Z,80.12
2017-12-08T11:25:50.537Z,80.08
2017-12-08T11:28:18.903Z,80.01
2017-12-08T11:30:47.201Z,79.02
2017-12-08T11:33:15.530Z,78.91
2017-12-08T11:35:43.957Z,77.90
2017-12-08T11:38:12.319Z,78.13
2017-12-08T11:40:40.653Z,78.01
2017-12-08T11:43:09.026Z,77.14
2017-12-08T11:45:37.593Z,77.27
2017-12-08T11:48:05.958Z,76.85
2017-12-08T11:50:34.263Z,77.07
2017-12-08T11:53:02.610Z,76.86
2017-12-08T11:55:30.977Z,75.88
2017-12-08T11:57:59.322Z,75.17
2017-12-08T12:00:27.664Z,75.78
2017-12-08T12:02:55.976Z,74.72
2017-12-08T12:05:24.301Z,75.80
2017-12-08T12:07:52.612Z,75.19
2017-12-08T12:10:20.938Z,74.65
2017-12-08T12:12:49.257Z,75.00
2017-12-08T12:15:17.593Z,75.92
2017-12-08T12:17:46.733Z,75.40
2017-12-08T12:20:15.025Z,75.02
2017-12-08T12:22:43.823Z,75.14
2017-12-08T12:25:12.151Z,75.56
2017-12-08T12:27:40.518Z,75.35
2017-12-08T12:30:08.918Z,75.31
2017-12-08T12:32:37.325Z,74.37
2017-12-08T12:35:05.666Z,74.59
2017-12-08T12:37:34.009Z,73.00
2017-12-08T12:40:02.384Z,73.25
2017-12-08T12:42:30.695Z,73.46
2017-12-08T12:44:59.069Z,73.80
2017-12-08T12:47:27.392Z,73.58
2017-12-08T12:49:55.919Z,73.41
2017-12-08T12:52:24.256Z,73.38
2017-12-08T12:54:52.598Z,73.73
2017-12-08T12:57:20.917Z,72.08
2017-12-08T12:59:49.260Z,72.13
2017-12-08T13:02:17.613Z,72.11
2017-12-08T13:04:45.948Z,72.42
2017-12-08T13:07:14.281Z,72.08
2017-12-08T13:09:42.673Z,72.27
2017-12-08T13:12:11.039Z,71.87
2017-12-08T13:14:39.944Z,72.24
2017-12-08T13:17:08.325Z,72.66
2017-12-08T13:19:36.746Z,72.37
2017-12-08T13:22:05.194Z,71.58
2017-12-08T13:24:33.426Z,71.57
2017-12-08T13:27:01.735Z,71.59
2017-12-08T13:29:30.491Z,72.03
2017-12-08T13:31:58.788Z,71.80
2017-12-08T13:34:27.055Z,71.33
2017-12-08T13:36:55.377Z,70.95
2017-12-08T13:39:23.654Z,71.23
2017-12-08T13:41:51.933Z,71.03
2017-12-08T13:44:20.229Z,70.57
2017-12-08T13:46:48.527Z,70.42
2017-12-08T13:49:16.820Z,70.87
2017-12-08T13:51:46.081Z,69.91
2017-12-08T13:54:26.036Z,70.14
2017-12-08T13:56:54.286Z,69.97
2017-12-08T13:59:22.675Z,69.57
2017-12-08T14:01:50.907Z,70.07
2017-12-08T14:04:19.218Z,70.26
2017-12-08T14:06:47.477Z,69.97
2017-12-08T14:09:15.791Z,69.56
2017-12-08T14:11:44.158Z,69.59
2017-12-08T14:14:12.447Z,70.12
2017-12-08T14:16:41.499Z,69.39
2017-12-08T14:19:09.905Z,69.90
2017-12-08T14:21:38.229Z,69.66
2017-12-08T14:24:06.455Z,70.01
2017-12-08T14:26:34.745Z,70.23
2017-12-08T14:29:03.014Z,70.20
2017-12-08T14:31:31.303Z,69.60
2017-12-08T14:33:59.559Z,70.57
2017-12-08T14:36:27.859Z,69.91
2017-12-08T14:38:56.184Z,70.55
2017-12-08T14:41:24.480Z,70.15
2017-12-08T14:43:53.313Z,70.09
2017-12-08T14:46:21.624Z,71.06
2017-12-08T14:48:49.905Z,71.24
2017-12-08T14:51:18.219Z,70.98
2017-12-08T14:53:46.499Z,71.20
2017-12-08T14:56:15.590Z,71.20
2017-12-08T14:58:43.932Z,70.17
2017-12-08T15:01:12.135Z,70.19
2017-12-08T15:03:40.455Z,70.42
2017-12-08T15:06:09.555Z,70.22
2017-12-08T15:08:37.879Z,70.01
2017-12-08T15:11:06.154Z,70.17
2017-12-08T15:13:34.496Z,70.08
2017-12-08T15:16:02.770Z,70.35
2017-12-08T15:18:31.037Z,69.47
2017-12-08T15:20:59.417Z,70.06
2017-12-08T15:23:29.099Z,70.45
2017-12-08T15:25:57.377Z,69.59
2017-12-08T15:28:26.559Z,69.99
2017-12-08T15:30:54.832Z,70.20
2017-12-08T15:33:23.145Z,70.39
2017-12-08T15:35:51.483Z,70.50
2017-12-08T15:38:19.751Z,69.94
2017-12-08T15:40:48.050Z,70.31
2017-12-08T15:43:16.316Z,70.44
2017-12-08T15:45:44.606Z,70.50
2017-12-08T15:48:12.870Z,70.76
2017-12-08T15:50:41.423Z,70.96
2017-12-08T15:53:09.712Z,71.18
2017-12-08T15:55:38.277Z,71.33
2017-12-08T15:58:06.549Z,71.37
2017-12-08T16:00:34.871Z,71.18
2017-12-08T16:03:03.162Z,71.10
2017-12-08T16:05:31.420Z,71.57
2017-12-08T16:07:59.727Z,71.11
2017-12-08T16:10:28.075Z,71.46
2017-12-08T16:12:56.398Z,70.63
2017-12-08T16:15:24.623Z,70.90
2017-12-08T16:17:53.069Z,71.34
2017-12-08T16:20:21.883Z,71.58
2017-12-08T16:22:50.466Z,71.72
2017-12-08T16:25:18.762Z,71.59
2017-12-08T16:27:47.083Z,71.96
2017-12-08T16:30:15.428Z,72.35
2017-12-08T16:32:43.780Z,72.78
2017-12-08T16:35:12.080Z,73.39
2017-12-08T16:37:40.977Z,73.39
2017-12-08T16:40:09.319Z,73.66
2017-12-08T16:42:37.570Z,74.03
2017-12-08T16:45:05.906Z,73.88
2017-12-08T16:47:34.151Z,73.98
2017-12-08T16:50:02.514Z,74.43
2017-12-08T16:52:30.919Z,74.56
2017-12-08T16:54:59.211Z,75.01
2017-12-08T16:57:27.510Z,75.00
2017-12-08T16:59:56.078Z,74.92
2017-12-08T17:02:24.470Z,74.60
2017-12-08T17:04:53.619Z,74.66
2017-12-08T17:07:21.961Z,74.13
2017-12-08T17:09:50.283Z,73.76
2017-12-08T17:12:18.544Z,73.73
2017-12-08T17:14:46.811Z,73.71
2017-12-08T17:17:15.100Z,73.39
2017-12-08T17:19:43.379Z,72.73
2017-12-08T17:22:11.698Z,72.76
2017-12-08T17:24:39.927Z,73.10
2017-12-08T17:27:08.242Z,73.03
2017-12-08T17:29:36.648Z,73.15
2017-12-08T17:32:04.956Z,72.82
2017-12-08T17:34:33.241Z,72.90
2017-12-08T17:37:01.547Z,73.06
2017-12-08T17:39:30.031Z,73.26
2017-12-08T17:41:58.305Z,72.76
2017-12-08T17:44:26.597Z,72.90
2017-12-08T17:46:54.832Z,73.02
2017-12-08T17:49:23.226Z,72.61
2017-12-08T17:51:51.487Z,72.67
2017-12-08T17:54:19.795Z,72.67
2017-12-08T17:56:48.051Z,72.70
2017-12-08T17:59:16.398Z,72.62
2017-12-08T18:01:44.711Z,72.47
2017-12-08T18:04:12.959Z,72.23
2017-12-08T18:06:41.247Z,72.28
2017-12-08T18:09:09.510Z,72.23
2017-12-08T18:11:37.782Z,72.17
2017-12-08T18:14:06.055Z,71.95
2017-12-08T18:16:34.359Z,71.98
2017-12-08T18:19:02.624Z,72.16
2017-12-08T18:21:31.264Z,72.85
2017-12-08T18:23:59.955Z,73.01
2017-12-08T18:26:28.265Z,73.07
2017-12-08T18:28:56.539Z,72.72
2017-12-08T18:31:24.832Z,72.80
2017-12-08T18:33:53.089Z,72.74
2017-12-08T18:36:21.460Z,72.41
2017-12-08T18:38:49.823Z,72.77
2017-12-08T18:41:18.114Z,73.00
2017-12-08T18:43:47.379Z,72.60
2017-12-08T18:46:15.624Z,72.78
2017-12-08T18:48:43.938Z,71.99
2017-12-08T18:51:12.246Z,71.89
2017-12-08T18:53:41.451Z,72.01
2017-12-08T18:56:09.728Z,71.55
2017-12-08T18:58:38.027Z,71.82
2017-12-08T19:01:07.056Z,72.19
2017-12-08T19:03:35.336Z,72.95
2017-12-08T19:06:04.359Z,72.85
2017-12-08T19:08:32.659Z,72.80
2017-12-08T19:11:00.985Z,72.78
2017-12-08T19:13:29.215Z,72.99
2017-12-08T19:15:57.511Z,72.85
2017-12-08T19:18:25.795Z,72.85
2017-12-08T19:20:54.111Z,72.79
2017-12-08T19:23:22.393Z,73.14
2017-12-08T19:25:50.679Z,73.51
2017-12-08T19:28:19.872Z,73.90
2017-12-08T19:30:48.180Z,74.87
2017-12-08T19:33:16.439Z,76.21
2017-12-08T19:35:44.724Z,78.16
2017-12-08T19:38:12.984Z,78.84
2017-12-08T19:40:41.307Z,78.89
2017-12-08T19:43:09.634Z,78.33
2017-12-08T19:45:37.911Z,77.88
2017-12-08T19:48:06.181Z,77.49
2017-12-08T19:50:34.480Z,77.59
2017-12-08T19:53:02.801Z,77.16
2017-12-08T19:55:31.590Z,76.74
2017-12-08T19:57:59.922Z,75.73
2017-12-08T20:00:28.168Z,75.61
2017-12-08T20:02:56.477Z,75.86
2017-12-08T20:05:24.797Z,75.72
2017-12-08T20:07:53.116Z,75.57
2017-12-08T20:10:21.382Z,75.44
2017-12-08T20:12:49.655Z,75.30
2017-12-08T20:15:17.923Z,75.57
2017-12-08T20:17:46.257Z,75.99
2017-12-08T20:20:14.581Z,76.17
2017-12-08T20:22:42.864Z,76.55
2017-12-08T20:25:11.153Z,76.56
2017-12-08T20:27:39.459Z,76.50
2017-12-08T20:30:07.745Z,75.76
2017-12-08T20:32:36.130Z,76.09
2017-12-08T20:35:04.373Z,76.10
2017-12-08T20:37:32.669Z,75.96
2017-12-08T20:40:00.959Z,76.08
2017-12-08T20:42:29.223Z,76.13
2017-12-08T20:44:57.495Z,76.62
2017-12-08T20:47:25.753Z,76.91
2017-12-08T20:49:54.052Z,76.77
2017-12-08T20:52:22.295Z,76.97
2017-12-08T20:54:50.698Z,77.92
2017-12-08T20:57:18.940Z,78.92
2017-12-08T20:59:47.213Z,79.21
2017-12-08T21:02:15.531Z,79.33
2017-12-08T21:04:43.856Z,79.38
2017-12-08T21:07:12.136Z,80.72
2017-12-08T21:09:40.735Z,80.75
2017-12-08T21:12:09.064Z,80.64
2017-12-08T21:14:37.591Z,80.36
2017-12-08T21:17:05.916Z,79.91
2017-12-08T21:19:34.199Z,79.21
2017-12-08T21:22:02.492Z,79.19
2017-12-08T21:24:30.751Z,79.15
2017-12-08T21:26:59.097Z,79.09
2017-12-08T21:29:27.347Z,79.32
2017-12-08T21:31:55.712Z,79.20
2017-12-08T21:34:23.980Z,78.67
2017-12-08T21:36:52.279Z,77.59
2017-12-08T21:39:20.547Z,77.75
2017-12-08T21:41:48.872Z,77.31
2017-12-08T21:44:17.115Z,77.38
2017-12-08T21:46:45.376Z,77.15
2017-12-08T21:49:13.701Z,76.88
2017-12-08T21:51:41.985Z,76.63
2017-12-08T21:54:10.304Z,76.12
2017-12-08T21:56:38.618Z,76.14
2017-12-08T21:59:06.881Z,75.29
2017-12-08T22:01:35.171Z,75.01
2017-12-08T22:04:04.122Z,74.92
2017-12-08T22:06:32.407Z,75.46
2017-12-08T22:09:00.701Z,74.91
2017-12-08T22:11:28.962Z,74.73
2017-12-08T22:13:57.280Z,74.41
2017-12-08T22:16:25.578Z,74.67
2017-12-08T22:18:53.851Z,74.64
2017-12-08T22:21:23.148Z,74.90
2017-12-08T22:23:51.423Z,75.31
2017-12-08T22:26:19.731Z,75.12
2017-12-08T22:28:47.992Z,74.75
2017-12-08T22:31:16.294Z,74.25
2017-12-08T22:33:44.566Z,73.91
2017-12-08T22:36:12.850Z,73.79
2017-12-08T22:38:41.126Z,73.68
2017-12-08T22:41:09.436Z,73.49
2017-12-08T22:43:37.675Z,73.15
2017-12-08T22:46:05.960Z,73.46
2017-12-08T22:48:34.264Z,73.09
2017-12-08T22:51:02.524Z,72.84
2017-12-08T22:53:30.809Z,72.39
2017-12-08T22:55:59.051Z,72.38
2017-12-08T22:58:27.421Z,72.45
2017-12-08T23:00:55.686Z,72.77
2017-12-08T23:03:23.984Z,72.79
2017-12-08T23:05:52.366Z,72.84
2017-12-08T23:08:20.941Z,72.83
2017-12-08T23:10:49.324Z,71.90
2017-12-08T23:13:17.612Z,71.96
2017-12-08T23:15:45.919Z,72.50
2017-12-08T23:18:14.249Z,72.26
2017-12-08T23:20:42.523Z,72.13
2017-12-08T23:23:10.801Z,72.28
2017-12-08T23:25:39.147Z,72.24
2017-12-08T23:28:07.433Z,72.51
2017-12-08T23:30:35.731Z,72.17
2017-12-08T23:33:04.396Z,71.75
2017-12-08T23:35:32.686Z,72.05
2017-12-08T23:38:00.942Z,71.76
2017-12-08T23:40:29.272Z,72.29
2017-12-08T23:42:57.530Z,72.56
2017-12-08T23:45:25.798Z,72.67
2017-12-08T23:47:54.091Z,72.71
2017-12-08T23:50:22.351Z,72.96
2017-12-08T23:52:50.633Z,72.63
2017-12-08T23:55:18.916Z,72.47
2017-12-08T23:57:47.189Z,72.46
